Home > Products > Valid Products > TAF

000
FTUS45 KPIH 230500
TAFBYI
TAF
KBYI 230520Z 2306/2406 VRB06KT P6SM SCT070=



000
FTUS45 KPIH 230500
TAFSUN
TAF
KSUN 230520Z 2306/2406 32007KT P6SM SCT050 SCT120
     FM231800 15008KT P6SM VCSH SCT060 BKN120
     FM240300 33007KT P6SM BKN150
      AMD LTD TO CLD VIS AND WIND TIL 231300=



000
FTUS45 KPIH 230500
TAFIDA
TAF
KIDA 230520Z 2306/2406 VRB06KT P6SM BKN100
     FM231900 21011KT P6SM FEW150
     FM240200 VRB05KT P6SM BKN200=



000
FTUS45 KPIH 230500
TAFPIH
TAF
KPIH 230520Z 2306/2406 18006KT P6SM SCT060
     FM231900 24010KT P6SM SCT070
     FM240200 14006KT P6SM BKN200=



000
FTUS45 KPIH 222300
TAFIDA
TAF
KIDA 222323Z 2300/2324 23011KT P6SM -SHRA VCTS SCT040 BKN060CB
     FM230300 VRB06KT P6SM SCT060 BKN100
     FM231400 21007KT P6SM FEW150=



000
FTUS45 KPIH 222300
TAFSUN
TAF
KSUN 222323Z 2300/2324 21007KT P6SM VCSH SCT040 OVC080
     FM230500 32007KT P6SM SCT050 SCT120
     FM231800 15008KT P6SM BKN150
      AMD LTD TO CLD VIS AND WIND 2305/2313=



000
FTUS45 KPIH 222300
TAFBYI
TAF
KBYI 222323Z 2300/2324 26008KT P6SM SCT050 BKN090
     FM230200 VRB06KT P6SM SCT070=



000
FTUS45 KPIH 222300
TAFPIH
TAF
KPIH 222323Z 2300/2324 26010KT P6SM VCSH SCT060 BKN120
     FM230300 VRB06KT P6SM VCSH SCT060
     FM230700 VRB05KT P6SM FEW150
     FM231900 24010KT P6SM SCT070=



000
FTUS45 KPIH 221700
TAFSUN
TAF
KSUN 221720Z 2218/2318 14008KT P6SM VCSH SCT040 OVC080
     FM230500 32007KT P6SM SCT050 SCT120=



000
FTUS45 KPIH 221700
TAFBYI
TAF
KBYI 221720Z 2218/2318 25008KT P6SM VCSH SCT080 OVC120
     FM222200 26008KT P6SM -SHRA VCTS SCT040 BKN060CB
     FM230200 VRB06KT P6SM SCT060=



000
FTUS45 KPIH 221700
TAFPIH
TAF
KPIH 221720Z 2218/2318 24011KT P6SM VCSH SCT060 OVC120
     FM230300 VRB06KT P6SM VCSH SCT060
     FM230700 VRB05KT P6SM FEW150=



000
FTUS45 KPIH 221700
TAFIDA
TAF
KIDA 221720Z 2218/2318 21010KT P6SM VCSH SCT050 OVC100
     FM222000 22011KT P6SM -SHRA VCTS SCT040 BKN060CB
     FM230300 VRB06KT P6SM SCT060 BKN100
     FM231400 21007KT P6SM FEW150=



000
FTUS45 KPIH 221100
TAFBYI
TAF
KBYI 221120Z 2212/2312 VRB06KT 6SM BR VCSH BKN100
     FM221800 26008KT P6SM -SHRA VCTS SCT040 BKN060CB
     FM230200 VRB06KT P6SM SCT060=



000
FTUS45 KPIH 221100
TAFPIH
TAF
KPIH 221120Z 2212/2312 VRB06KT P6SM -SHRA SCT060 BKN100
     FM221800 24013KT P6SM -SHRA VCTS SCT040 BKN060CB
     FM230300 VRB06KT P6SM SCT060=



000
FTUS45 KPIH 221100
TAFSUN
TAF
KSUN 221120Z 2212/2312 VRB06KT 6SM BR VCSH SCT025 SCT050
      TEMPO 2212/2214 2SM BR BKN025
     FM221900 18008KT P6SM VCTS BKN060CB
     FM230300 32007KT P6SM BKN050=



000
FTUS45 KPIH 221100
TAFIDA
TAF
KIDA 221120Z 2212/2312 VRB06KT 6SM BR OVC050
     FM221500 20008KT P6SM -SHRA VCTS BKN060CB
     FM222000 22013KT P6SM -SHRA VCTS SCT040 BKN060CB
     FM230300 VRB06KT P6SM SCT060 BKN100=



000
FTUS45 KPIH 221000 AAB
TAFBYI
TAF AMD
KBYI 221002Z 2210/2306 VRB05KT 6SM BR VCSH BKN090
      TEMPO 2210/2212 4SM BR FEW002
     FM221300 20007KT P6SM -SHRA VCTS SCT030 BKN060CB
     FM222000 27009KT P6SM VCTS SCT050 BKN070CB
     FM230200 VRB06KT P6SM SCT120=



000
FTUS45 KPIH 221000 AAB
TAFIDA
TAF AMD
KIDA 221001Z 2210/2306 VRB05KT 6SM BR OVC050
      TEMPO 2210/2212 2SM BR FEW002
     FM221500 20008KT P6SM -SHRA VCTS SCT030 BKN060CB
     FM222000 22014KT P6SM -SHRA VCTS SCT050 BKN070CB
     FM230400 VRB06KT P6SM SCT120 BKN150=



000
FTUS45 KPIH 220900 AAA
TAFIDA
TAF AMD
KIDA 220903Z 2209/2306 VRB05KT 2SM BR FEW002 SCT070
      TEMPO 2209/2213 1/4SM FG VV002
     FM221500 20008KT P6SM -SHRA VCTS SCT030 BKN060CB
     FM222000 22014KT P6SM -SHRA VCTS SCT050 BKN070CB
     FM230400 VRB06KT P6SM SCT120 BKN150=



000
FTUS45 KPIH 220700 AAA
TAFPIH
TAF AMD
KPIH 220722Z 2207/2306 VRB06KT P6SM -SHRA FEW002 SCT050 BKN100
     FM221800 24013KT P6SM -SHRA VCTS SCT050 BKN070CB
     FM230200 VRB06KT P6SM SCT120 BKN150=



000
FTUS45 KPIH 220600 AAA
TAFBYI
TAF AMD
KBYI 220608Z 2206/2306 VRB06KT 2SM BR VCSH FEW002 BKN060
      TEMPO 2206/2210 1/2SM FG VV001
     FM221300 20007KT P6SM -SHRA VCTS SCT030 BKN060CB
     FM222000 27009KT P6SM VCTS SCT050 BKN070CB
     FM230200 VRB06KT P6SM SCT120=



000
FTUS45 KPIH 220500
TAFSUN
TAF
KSUN 220520Z 2206/2306 VRB06KT P6SM -SHRA VCTS SCT040 OVC070CB
     FM221000 VRB06KT P6SM VCTS SCT040 BKN070CB
     FM221900 18008KT P6SM VCTS FEW050 BKN070CB
     FM230300 32007KT P6SM SCT100 BKN120
      AMD LTD TO CLD VIS AND WIND TIL 221300=



000
FTUS45 KPIH 220500
TAFPIH
TAF
KPIH 220520Z 2206/2306 VRB06KT P6SM VCTS SCT070 SCT120CB
     FM220700 19012KT P6SM -SHRA VCTS SCT030 BKN060CB
     FM221800 24013KT P6SM -SHRA VCTS SCT050 BKN070CB
     FM230200 VRB06KT P6SM SCT120 BKN150=



000
FTUS45 KPIH 220500
TAFBYI
TAF
KBYI 220520Z 2206/2306 VRB06KT P6SM VCTS SCT060 SCT120CB
     FM220700 20011KT P6SM -SHRA VCTS SCT030 BKN060CB
     FM222000 27009KT P6SM VCTS SCT050 BKN070CB
     FM230200 VRB06KT P6SM SCT120=



000
FTUS45 KPIH 220500
TAFIDA
TAF
KIDA 220520Z 2206/2306 19010KT P6SM -SHRA VCTS SCT060 OVC080CB
     FM220700 VRB06KT P6SM VCTS SCT050 BKN070CB
     FM220900 20013KT P6SM -SHRA VCTS SCT030 BKN060CB
     FM222000 22014KT P6SM -SHRA VCTS SCT050 BKN070CB
     FM230400 VRB06KT P6SM SCT120 BKN150=



000
FTUS45 KPIH 220100 AAA
TAFPIH
TAF AMD
KPIH 220120Z 2201/2224 20010KT P6SM -SHRA VCTS SCT030 OVC050CB
     FM220700 19012KT P6SM VCTS SCT050 BKN070CB
     FM221300 21013KT P6SM -SHRA VCTS SCT030 BKN060CB=



000
FTUS45 KPIH 212300
TAFIDA
TAF
KIDA 212320Z 2200/2224 18015G25KT P6SM VCTS SCT060 BKN100CB
     FM220200 19010KT P6SM -SHRA VCTS SCT030 BKN060CB
     FM221100 19012KT P6SM VCTS SCT050 BKN070CB
     FM221600 21013KT P6SM -SHRA VCTS SCT030 BKN060CB=



000
FTUS45 KPIH 212300
TAFPIH
TAF
KPIH 212320Z 2200/2224 18015G25KT P6SM -SHRA VCTS SCT050 OVC110CB
     FM220200 19010KT P6SM -SHRA VCTS SCT030 OVC050CB
     FM220700 19012KT P6SM VCTS SCT050 BKN070CB
     FM221300 21013KT P6SM -SHRA VCTS SCT030 BKN060CB=



000
FTUS45 KPIH 212300
TAFSUN
TAF
KSUN 212320Z 2200/2224 15008KT P6SM -SHRA VCTS SCT070 BKN110CB
     FM220300 32007KT P6SM -SHRA VCTS SCT030 BKN060CB
     FM221900 18008KT P6SM VCSH SCT050 BKN100
      AMD LTD TO CLD VIS AND WIND 2205/2213=



000
FTUS45 KPIH 212300
TAFBYI
TAF
KBYI 212320Z 2200/2224 22010KT P6SM -SHRA VCTS SCT040 OVC060CB
     FM220600 18010KT P6SM VCTS SCT050 BKN070CB
     FM221200 20011KT P6SM -SHRA VCTS SCT030 BKN060CB
     FM222000 27009KT P6SM VCSH SCT030 BKN110=



000
FTUS45 KPIH 212200 AAA
TAFPIH
TAF AMD
KPIH 212200Z 2122/2218 18015G25KT P6SM VCTS SCT080 BKN120CB
     FM220000 18010KT P6SM VCTS SCT050 OVC090CB
     FM220300 VRB06KT P6SM -SHRA VCTS SCT030 BKN060CB=



000
FTUS45 KPIH 211700
TAFSUN
TAF
KSUN 211720Z 2118/2218 31008KT P6SM BKN120
     FM211900 15008KT P6SM VCTS SCT070 BKN110CB
     FM220300 32007KT P6SM -SHRA VCTS SCT030 BKN060CB=



000
FTUS45 KPIH 211700
TAFPIH
TAF
KPIH 211720Z 2118/2218 VRB06KT P6SM BKN120
     FM212000 04006KT P6SM VCTS SCT090 BKN120CB
     FM220000 18010KT P6SM VCTS SCT050 OVC090CB
     FM220300 VRB06KT P6SM -SHRA VCTS SCT030 BKN060CB=



000
FTUS45 KPIH 211700
TAFBYI
TAF
KBYI 211720Z 2118/2218 VRB06KT P6SM -SHRA VCTS SCT070 BKN100CB
     FM212300 22010KT P6SM -SHRA VCTS SCT040 BKN080CB
     FM220200 VRB06KT P6SM -SHRA VCTS SCT040 OVC060CB
     FM221300 VRB06KT P6SM VCSH SCT030 BKN060=



000
FTUS45 KPIH 211700
TAFIDA
TAF
KIDA 211720Z 2118/2218 VRB06KT P6SM SCT100
     FM212000 VRB06KT P6SM VCTS SCT090 BKN100CB
     FM220200 19012KT P6SM VCTS SCT040 OVC090CB
     FM220500 VRB06KT P6SM -SHRA VCTS SCT030 BKN060CB=



000
FTUS45 KPIH 211100
TAFPIH
TAF
KPIH 211120Z 2112/2212 VRB06KT P6SM FEW120 BKN250
     FM212000 19010KT P6SM -SHRA VCTS SCT090 BKN120CB
     FM220200 VRB06KT P6SM -SHRA VCTS SCT040 BKN070CB=



000
FTUS45 KPIH 211100
TAFIDA
TAF
KIDA 211120Z 2112/2212 VRB06KT P6SM FEW120 BKN250
     FM212000 22008KT P6SM -SHRA VCTS SCT090 BKN120CB
     FM220300 VRB06KT P6SM -SHRA VCTS SCT040 BKN120CB=



000
FTUS45 KPIH 211100
TAFSUN
TAF
KSUN 211120Z 2112/2212 31008KT P6SM FEW110 BKN200
     FM211900 15008KT P6SM -SHRA VCTS SCT070 BKN110CB
     FM220300 32007KT P6SM -SHRA VCTS SCT030 BKN060CB
      AMD LTD TO CLD VIS AND WIND TIL 211300=



000
FTUS45 KPIH 211100
TAFBYI
TAF
KBYI 211120Z 2112/2212 VRB06KT P6SM FEW120 BKN250
     FM211800 19008KT P6SM -SHRA VCTS SCT090 BKN120CB
     FM220200 VRB06KT P6SM -SHRA VCTS SCT040 BKN070CB=



000
FTUS45 KPIH 210500
TAFBYI
TAF
KBYI 210520Z 2106/2206 VRB06KT P6SM SCT250
     FM211800 19010KT P6SM -SHRA VCTS SCT090 BKN120CB
     FM220200 VRB06KT P6SM -SHRA VCTS SCT030 BKN070CB=



000
FTUS45 KPIH 210500
TAFPIH
TAF
KPIH 210520Z 2106/2206 VRB06KT P6SM FEW250
     FM212000 20012KT P6SM -SHRA VCTS SCT090 BKN120CB
     FM220200 18010KT P6SM -SHRA VCTS SCT030 BKN070CB=



000
FTUS45 KPIH 210500
TAFIDA
TAF
KIDA 210520Z 2106/2206 VRB06KT P6SM SKC
     FM212000 22006KT P6SM -SHRA VCTS SCT090 BKN120CB
     FM220300 19007KT P6SM -SHRA VCTS SCT030 BKN120CB=



000
FTUS45 KPIH 210500
TAFSUN
TAF
KSUN 210520Z 2106/2206 31008KT P6SM SKC
     FM211900 15010KT P6SM -SHRA VCTS SCT070 BKN110CB
     FM220300 VRB06KT P6SM -SHRA VCTS SCT030 BKN060CB
      AMD LTD TO CLD VIS AND WIND TIL 211300=



000
FTUS45 KPIH 202300
TAFBYI
TAF
KBYI 202320Z 2100/2124 VRB06KT P6SM SKC
     FM212000 19010KT P6SM -SHRA VCTS SCT090 BKN150CB=



000
FTUS45 KPIH 202300
TAFPIH
TAF
KPIH 202320Z 2100/2124 VRB06KT P6SM SKC
     FM212000 20012KT P6SM -SHRA VCTS SCT090 BKN150CB=



000
FTUS45 KPIH 202300
TAFIDA
TAF
KIDA 202320Z 2100/2124 VRB06KT P6SM SKC
     FM212000 22006KT P6SM VCTS SCT110 BKN150CB=



000
FTUS45 KPIH 202300
TAFSUN
TAF
KSUN 202320Z 2100/2124 13011KT P6SM SKC
     FM210400 31008KT P6SM SKC
     FM211900 15010KT P6SM VCTS SCT070 BKN120CB
      AMD LTD TO CLD VIS AND WIND 2105/2113=



000
FTUS45 KPIH 201700
TAFIDA
TAF
KIDA 201720Z 2018/2118 VRB06KT P6SM SKC=



000
FTUS45 KPIH 201700
TAFSUN
TAF
KSUN 201720Z 2018/2118 31007KT P6SM SKC
     FM201900 13008KT P6SM SKC
     FM210400 31008KT P6SM SKC=



000
FTUS45 KPIH 201700
TAFBYI
TAF
KBYI 201720Z 2018/2118 VRB06KT P6SM SKC=



000
FTUS45 KPIH 201700
TAFPIH
TAF
KPIH 201720Z 2018/2118 VRB06KT P6SM SKC=



000
FTUS45 KPIH 201100
TAFSUN
TAF
KSUN 201120Z 2012/2112 31007KT P6SM SKC
     FM201700 13008KT P6SM SKC
     FM210400 31008KT P6SM SKC
      AMD LTD TO CLD VIS AND WIND TIL 201300=



000
FTUS45 KPIH 201100
TAFBYI
TAF
KBYI 201120Z 2012/2112 VRB06KT P6SM SKC=



000
FTUS45 KPIH 201100
TAFIDA
TAF
KIDA 201120Z 2012/2112 VRB06KT P6SM SKC=



000
FTUS45 KPIH 201100
TAFPIH
TAF
KPIH 201120Z 2012/2112 VRB06KT P6SM SKC=



    US Dept of Commerce
    National Oceanic and Atmospheric Administration
    National Weather Service
    1325 East West Highway
    Silver Spring, MD 20910
    Page Author: NWS Internet Services Team
Disclaimer
Information Quality
Credits
Glossary
Privacy Policy
Freedom of Information Act (FOIA)
About Us
Career Opportunities